createdAt,value
2022-11-17T00:00:37.497Z,98.40
2022-11-17T00:01:37.508Z,98.81
2022-11-17T00:02:37.556Z,98.96
2022-11-17T00:03:38.584Z,99.16
2022-11-17T00:04:37.449Z,99.06
2022-11-17T00:05:37.473Z,98.96
2022-11-17T00:06:37.417Z,99.27
2022-11-17T00:07:37.470Z,99.27
2022-11-17T00:08:37.378Z,99.37
2022-11-17T00:09:37.429Z,99.37
2022-11-17T00:10:37.347Z,99.47
2022-11-17T00:11:37.330Z,99.47
2022-11-17T00:12:37.292Z,99.78
2022-11-17T00:13:37.448Z,99.57
2022-11-17T00:14:37.307Z,99.68
2022-11-17T00:15:37.276Z,99.88
2022-11-17T00:16:37.374Z,99.99
2022-11-17T00:17:37.385Z,99.88
2022-11-17T00:18:37.342Z,99.99
2022-11-17T00:19:37.221Z,99.99
2022-11-17T00:20:37.276Z,99.99
2022-11-17T00:21:37.281Z,99.99
2022-11-17T00:22:37.197Z,99.99
2022-11-17T00:23:37.319Z,99.99
2022-11-17T00:24:37.248Z,99.99
2022-11-17T00:25:37.140Z,99.98
2022-11-17T00:26:37.134Z,99.99
2022-11-17T00:27:37.245Z,99.99
2022-11-17T00:28:37.083Z,99.78
2022-11-17T00:29:39.321Z,99.57
2022-11-17T00:30:37.055Z,99.47
2022-11-17T00:31:37.141Z,99.27
2022-11-17T00:32:37.083Z,99.37
2022-11-17T00:33:37.289Z,99.37
2022-11-17T00:34:37.007Z,99.57
2022-11-17T00:35:37.260Z,99.57
2022-11-17T00:36:36.988Z,99.57
2022-11-17T00:37:37.060Z,99.78
2022-11-17T00:38:37.008Z,99.57
2022-11-17T00:39:36.931Z,99.88
2022-11-17T00:40:36.916Z,99.37
2022-11-17T00:41:36.946Z,99.57
2022-11-17T00:42:36.910Z,99.47
2022-11-17T00:43:37.235Z,99.16
2022-11-17T00:44:36.880Z,99.16
2022-11-17T00:45:36.864Z,99.27
2022-11-17T00:46:36.841Z,99.37
2022-11-17T00:47:36.868Z,98.96
2022-11-17T00:48:36.825Z,98.40
2022-11-17T00:49:36.823Z,98.61
2022-11-17T00:50:36.783Z,98.81
2022-11-17T00:51:36.767Z,98.10
2022-11-17T00:52:36.801Z,98.30
2022-11-17T00:53:37.079Z,98.50
2022-11-17T00:54:36.902Z,97.69
2022-11-17T00:55:36.768Z,98.20
2022-11-17T00:56:36.713Z,98.40
2022-11-17T00:57:36.734Z,98.55
2022-11-17T00:58:36.737Z,98.75
2022-11-17T00:59:36.690Z,99.16
2022-11-17T01:00:36.679Z,99.27
2022-11-17T01:02:37.709Z,99.99
2022-11-17T01:03:37.728Z,99.99
2022-11-17T01:04:37.705Z,99.99
2022-11-17T01:05:37.417Z,99.99
2022-11-17T01:06:37.442Z,99.99
2022-11-17T01:07:37.500Z,99.99
2022-11-17T01:08:37.369Z,99.99
2022-11-17T01:09:37.357Z,99.99
2022-11-17T01:10:37.337Z,99.99
2022-11-17T01:11:37.349Z,99.99
2022-11-17T01:12:37.331Z,99.99
2022-11-17T01:13:37.546Z,99.99
2022-11-17T01:14:37.291Z,99.99
2022-11-17T01:15:37.348Z,99.99
2022-11-17T01:16:37.256Z,99.99
2022-11-17T01:17:37.328Z,99.99
2022-11-17T01:18:37.240Z,99.99
2022-11-17T01:19:37.242Z,99.99
2022-11-17T01:20:37.247Z,99.99
2022-11-17T01:21:37.219Z,99.99
2022-11-17T01:22:37.180Z,99.99
2022-11-17T01:23:37.380Z,99.99
2022-11-17T01:24:37.151Z,99.99
2022-11-17T01:25:37.184Z,99.99
2022-11-17T01:26:37.120Z,99.99
2022-11-17T01:27:37.187Z,99.99
2022-11-17T01:28:37.110Z,99.99
2022-11-17T01:29:37.102Z,99.99
2022-11-17T01:30:37.071Z,99.99
2022-11-17T01:31:37.042Z,99.99
2022-11-17T01:32:37.044Z,99.99
2022-11-17T01:33:37.497Z,99.99
2022-11-17T01:34:37.024Z,99.99
2022-11-17T01:35:37.045Z,99.99
2022-11-17T01:36:37.743Z,99.99
2022-11-17T01:37:36.974Z,99.99
2022-11-17T01:38:36.964Z,99.99
2022-11-17T01:39:36.986Z,99.99
2022-11-17T01:40:36.953Z,99.99
2022-11-17T01:41:36.934Z,99.99
2022-11-17T01:42:36.898Z,99.99
2022-11-17T01:43:37.277Z,99.99
2022-11-17T01:44:36.884Z,99.99
2022-11-17T01:45:36.895Z,99.99
2022-11-17T01:46:36.899Z,99.99
2022-11-17T01:47:36.855Z,99.99
2022-11-17T01:48:36.826Z,99.99
2022-11-17T01:49:36.822Z,99.99
2022-11-17T01:50:36.804Z,99.99
2022-11-17T01:51:36.797Z,99.99
2022-11-17T01:52:36.794Z,99.99
2022-11-17T01:53:37.083Z,99.99
2022-11-17T01:54:36.761Z,99.99
2022-11-17T01:55:36.767Z,99.99
2022-11-17T01:56:36.740Z,99.99
2022-11-17T01:57:36.717Z,99.99
2022-11-17T01:58:36.697Z,99.99
2022-11-17T01:59:36.698Z,99.99
2022-11-17T02:00:36.678Z,99.99
2022-11-17T02:01:36.694Z,99.99
2022-11-17T02:02:36.644Z,99.99
2022-11-17T02:03:36.963Z,99.99
2022-11-17T02:04:36.610Z,99.99
2022-11-17T02:05:36.609Z,99.99
2022-11-17T02:06:36.592Z,99.99
2022-11-17T02:07:36.656Z,99.99
2022-11-17T02:08:36.730Z,99.99
2022-11-17T02:09:36.571Z,99.99
2022-11-17T02:10:36.530Z,99.99
2022-11-17T02:11:36.527Z,99.99
2022-11-17T02:12:36.525Z,99.99
2022-11-17T02:13:36.776Z,99.99
2022-11-17T02:14:36.533Z,99.99
2022-11-17T02:15:36.466Z,99.99
2022-11-17T02:16:36.463Z,99.99
2022-11-17T02:17:36.453Z,99.99
2022-11-17T02:18:36.493Z,99.99
2022-11-17T02:19:36.422Z,99.99
2022-11-17T02:20:36.499Z,99.99
2022-11-17T02:21:36.392Z,99.99
2022-11-17T02:22:36.373Z,99.99
2022-11-17T02:23:36.690Z,99.99
2022-11-17T02:24:36.379Z,99.99
2022-11-17T02:25:36.343Z,99.99
2022-11-17T02:26:36.313Z,99.99
2022-11-17T02:27:36.312Z,99.99
2022-11-17T02:28:36.293Z,99.99
2022-11-17T02:29:36.283Z,99.99
2022-11-17T02:30:36.281Z,99.99
2022-11-17T02:31:36.264Z,99.99
2022-11-17T02:32:36.313Z,99.99
2022-11-17T02:33:36.608Z,99.99
2022-11-17T02:34:36.226Z,99.99
2022-11-17T02:35:36.224Z,99.99
2022-11-17T02:36:36.219Z,99.99
2022-11-17T02:37:36.250Z,99.99
2022-11-17T02:38:36.207Z,99.99
2022-11-17T02:39:36.155Z,99.99
2022-11-17T02:40:36.174Z,99.99
2022-11-17T02:41:36.116Z,99.99
2022-11-17T02:42:36.076Z,99.99
2022-11-17T02:43:36.506Z,99.99
2022-11-17T02:44:36.051Z,99.99
2022-11-17T02:45:36.077Z,99.99
2022-11-17T02:46:36.027Z,99.99
2022-11-17T02:47:36.055Z,99.99
2022-11-17T02:48:36.008Z,99.99
2022-11-17T02:49:35.999Z,99.99
2022-11-17T02:50:35.961Z,99.99
2022-11-17T02:51:35.996Z,99.78
2022-11-17T02:52:36.018Z,99.88
2022-11-17T02:53:36.178Z,99.99
2022-11-17T02:54:35.928Z,99.78
2022-11-17T02:55:35.919Z,99.57
2022-11-17T02:56:35.875Z,99.47
2022-11-17T02:57:35.888Z,98.86
2022-11-17T02:58:35.873Z,99.37
2022-11-17T02:59:35.880Z,98.75
2022-11-17T03:00:35.860Z,98.96
2022-11-17T03:01:35.932Z,99.88
2022-11-17T03:02:35.812Z,99.99
2022-11-17T03:03:35.989Z,99.99
2022-11-17T03:04:35.801Z,99.99
2022-11-17T03:05:35.785Z,99.99
2022-11-17T03:06:35.762Z,99.99
2022-11-17T03:07:35.819Z,99.99
2022-11-17T03:08:35.753Z,99.99
2022-11-17T03:09:35.741Z,99.99
2022-11-17T03:10:35.733Z,99.99
2022-11-17T03:11:35.711Z,99.99
2022-11-17T03:12:35.692Z,99.99
2022-11-17T03:13:36.008Z,99.99
2022-11-17T03:14:35.677Z,99.99
2022-11-17T03:15:35.673Z,99.99
2022-11-17T03:16:35.622Z,99.99
2022-11-17T03:17:35.614Z,99.99
2022-11-17T03:18:35.594Z,99.99
2022-11-17T03:19:35.574Z,99.99
2022-11-17T03:20:35.604Z,99.99
2022-11-17T03:21:35.570Z,99.99
2022-11-17T03:22:35.596Z,99.99
2022-11-17T03:23:35.743Z,99.99
2022-11-17T03:24:35.526Z,99.99
2022-11-17T03:25:35.496Z,99.99
2022-11-17T03:26:35.486Z,99.99
2022-11-17T03:27:35.491Z,99.99
2022-11-17T03:28:35.445Z,99.99
2022-11-17T03:29:35.470Z,99.99
2022-11-17T03:30:37.619Z,99.99
2022-11-17T03:31:35.422Z,99.99
2022-11-17T03:32:35.425Z,99.99
2022-11-17T03:33:35.632Z,99.99
2022-11-17T03:34:35.449Z,99.99
2022-11-17T03:35:35.365Z,99.99
2022-11-17T03:36:35.387Z,99.99
2022-11-17T03:37:35.338Z,99.99
2022-11-17T03:38:35.346Z,99.99
2022-11-17T03:39:35.307Z,99.99
2022-11-17T03:40:35.309Z,99.99
2022-11-17T03:41:35.316Z,99.99
2022-11-17T03:42:35.268Z,99.99
2022-11-17T03:43:35.530Z,99.99
2022-11-17T03:44:35.242Z,99.99
2022-11-17T03:45:35.261Z,99.99
2022-11-17T03:46:35.318Z,99.99
2022-11-17T03:47:35.208Z,99.99
2022-11-17T03:48:35.213Z,99.99
2022-11-17T03:49:35.209Z,99.99
2022-11-17T03:50:35.201Z,99.99
2022-11-17T03:51:35.200Z,99.99
2022-11-17T03:52:35.155Z,99.99
2022-11-17T03:53:35.434Z,99.99
2022-11-17T03:54:35.114Z,99.99
2022-11-17T03:55:35.103Z,99.99
2022-11-17T03:56:35.106Z,99.99
2022-11-17T03:57:35.083Z,99.99
2022-11-17T03:58:35.062Z,99.99
2022-11-17T03:59:35.042Z,99.99
2022-11-17T04:00:35.055Z,99.99
2022-11-17T04:01:35.064Z,99.99
2022-11-17T04:02:35.013Z,99.99
2022-11-17T04:03:35.310Z,99.99
2022-11-17T04:04:34.964Z,99.99
2022-11-17T04:05:35.004Z,99.99
2022-11-17T04:06:34.977Z,99.99
2022-11-17T04:07:34.992Z,99.99
2022-11-17T04:08:34.955Z,99.99
2022-11-17T04:09:34.919Z,99.93
2022-11-17T04:10:34.925Z,99.99
2022-11-17T04:11:34.884Z,99.99
2022-11-17T04:12:34.865Z,99.99
2022-11-17T04:13:35.269Z,99.99
2022-11-17T04:14:34.846Z,99.99
2022-11-17T04:15:34.826Z,99.99
2022-11-17T04:16:34.835Z,99.99
2022-11-17T04:17:34.816Z,99.99
2022-11-17T04:18:34.788Z,99.99
2022-11-17T04:19:34.778Z,99.99
2022-11-17T04:20:34.790Z,99.99
2022-11-17T04:21:34.779Z,99.99
2022-11-17T04:22:34.746Z,99.99
2022-11-17T04:23:34.924Z,99.99
2022-11-17T04:24:34.729Z,99.99
2022-11-17T04:25:34.690Z,99.93
2022-11-17T04:26:34.689Z,99.82
2022-11-17T04:27:34.689Z,99.99
2022-11-17T04:28:34.637Z,99.99
2022-11-17T04:29:34.624Z,99.99
2022-11-17T04:30:34.628Z,99.99
2022-11-17T04:31:34.609Z,99.99
2022-11-17T04:32:34.643Z,99.99
2022-11-17T04:33:34.860Z,99.72
2022-11-17T04:34:34.570Z,99.52
2022-11-17T04:35:34.565Z,99.31
2022-11-17T04:36:34.580Z,98.90
2022-11-17T04:37:34.541Z,98.65
2022-11-17T04:38:34.549Z,98.90
2022-11-17T04:39:34.531Z,98.70
2022-11-17T04:40:34.517Z,98.90
2022-11-17T04:41:34.483Z,98.55
2022-11-17T04:42:34.533Z,98.24
2022-11-17T04:43:34.824Z,98.24
2022-11-17T04:44:34.475Z,98.24
2022-11-17T04:45:34.467Z,98.55
2022-11-17T04:46:34.440Z,99.01
2022-11-17T04:47:34.444Z,99.31
2022-11-17T04:48:34.384Z,99.52
2022-11-17T04:49:34.376Z,99.31
2022-11-17T04:50:34.407Z,98.90
2022-11-17T04:51:34.348Z,99.01
2022-11-17T04:52:34.335Z,99.31
2022-11-17T04:53:34.685Z,99.31
2022-11-17T04:54:34.305Z,99.01
2022-11-17T04:55:34.282Z,99.72
2022-11-17T04:56:34.286Z,99.01
2022-11-17T04:57:34.258Z,98.80
2022-11-17T04:58:34.281Z,98.90
2022-11-17T04:59:34.274Z,99.11
2022-11-17T05:00:34.219Z,99.01
2022-11-17T05:01:34.206Z,98.39
2022-11-17T05:02:34.258Z,97.98
2022-11-17T05:03:34.509Z,97.83
2022-11-17T05:04:34.157Z,98.49
2022-11-17T05:05:34.149Z,97.02
2022-11-17T05:06:34.175Z,97.33
2022-11-17T05:07:34.218Z,97.33
2022-11-17T05:08:34.118Z,97.98
2022-11-17T05:09:34.106Z,98.29
2022-11-17T05:10:34.158Z,97.98
2022-11-17T05:11:34.090Z,97.98
2022-11-17T05:12:34.059Z,97.63
2022-11-17T05:13:34.342Z,98.24
2022-11-17T05:14:34.041Z,98.45
2022-11-17T05:15:34.011Z,98.04
2022-11-17T05:16:34.072Z,97.94
2022-11-17T05:17:33.971Z,97.12
2022-11-17T05:18:33.982Z,96.97
2022-11-17T05:19:33.961Z,96.77
2022-11-17T05:20:33.952Z,97.08
2022-11-17T05:21:33.930Z,97.28
2022-11-17T05:22:33.952Z,96.67
2022-11-17T05:23:34.107Z,96.67
2022-11-17T05:24:33.925Z,95.95
2022-11-17T05:25:33.875Z,95.75
2022-11-17T05:26:33.882Z,96.15
2022-11-17T05:27:33.860Z,96.97
2022-11-17T05:28:33.856Z,96.97
2022-11-17T05:29:33.854Z,96.36
2022-11-17T05:30:33.814Z,95.64
2022-11-17T05:31:33.815Z,96.05
2022-11-17T05:32:33.812Z,95.90
2022-11-17T05:33:37.787Z,95.90
2022-11-17T05:34:33.821Z,96.87
2022-11-17T05:35:33.786Z,97.28
2022-11-17T05:36:33.782Z,98.10
2022-11-17T05:37:33.718Z,98.35
2022-11-17T05:38:33.749Z,98.96
2022-11-17T05:39:33.766Z,98.96
2022-11-17T05:40:33.776Z,99.68
2022-11-17T05:41:33.803Z,99.99
2022-11-17T05:42:33.645Z,99.99
2022-11-17T05:43:33.990Z,99.99
2022-11-17T05:44:33.637Z,99.99
2022-11-17T05:45:33.643Z,99.99
2022-11-17T05:46:33.624Z,99.99
2022-11-17T05:47:33.589Z,99.99
2022-11-17T05:48:33.586Z,99.99
2022-11-17T05:49:33.624Z,99.99
2022-11-17T05:50:41.093Z,99.99
2022-11-17T05:51:33.533Z,99.99
2022-11-17T05:52:33.496Z,99.99
2022-11-17T05:53:33.858Z,99.99
2022-11-17T05:54:33.481Z,99.99
2022-11-17T05:55:33.514Z,99.99
2022-11-17T05:56:33.485Z,99.99
2022-11-17T05:57:33.514Z,99.99
2022-11-17T05:58:33.449Z,99.99
2022-11-17T05:59:33.418Z,99.99
2022-11-17T06:00:33.466Z,99.99
2022-11-17T06:01:33.400Z,99.99
2022-11-17T06:02:33.430Z,99.99
2022-11-17T06:03:33.684Z,99.99
2022-11-17T06:04:33.432Z,99.99
2022-11-17T06:05:33.335Z,99.99
2022-11-17T06:06:33.325Z,99.99
2022-11-17T06:07:33.354Z,99.99
2022-11-17T06:08:33.350Z,99.99
2022-11-17T06:09:33.287Z,99.99
2022-11-17T06:10:35.017Z,99.99
2022-11-17T06:11:33.460Z,99.99
2022-11-17T06:12:33.268Z,99.99
2022-11-17T06:13:33.642Z,99.99
2022-11-17T06:14:33.263Z,99.99
2022-11-17T06:15:33.234Z,99.99
2022-11-17T06:16:33.212Z,99.99
2022-11-17T06:17:33.192Z,99.99
2022-11-17T06:18:33.177Z,99.99
2022-11-17T06:19:33.173Z,99.99
2022-11-17T06:20:33.133Z,99.99
2022-11-17T06:21:49.333Z,99.99
2022-11-17T06:22:34.131Z,99.99
2022-11-17T06:23:33.408Z,99.99
2022-11-17T06:24:33.083Z,99.99
2022-11-17T06:25:33.053Z,99.99
2022-11-17T06:26:33.157Z,99.99
2022-11-17T06:27:33.024Z,99.99
2022-11-17T06:28:33.062Z,99.99
2022-11-17T06:29:33.027Z,99.99
2022-11-17T06:30:32.987Z,99.99
2022-11-17T06:31:33.005Z,99.99
2022-11-17T06:32:33.016Z,99.99
2022-11-17T06:33:33.230Z,99.99
2022-11-17T06:34:32.962Z,99.99
2022-11-17T06:35:32.943Z,99.99
2022-11-17T06:36:32.932Z,99.99
2022-11-17T06:37:32.911Z,99.99
2022-11-17T06:38:32.914Z,99.99
2022-11-17T06:39:32.888Z,99.99
2022-11-17T06:40:32.888Z,99.99
2022-11-17T06:41:32.859Z,99.99
2022-11-17T06:42:32.847Z,99.99
2022-11-17T06:43:33.056Z,99.99
2022-11-17T06:44:32.822Z,99.99
2022-11-17T06:45:32.995Z,99.99
2022-11-17T06:46:32.785Z,99.99
2022-11-17T06:47:32.802Z,99.99
2022-11-17T06:48:33.147Z,99.99
2022-11-17T06:49:32.751Z,99.99
2022-11-17T06:50:32.728Z,99.99
2022-11-17T06:51:32.784Z,99.99
2022-11-17T06:52:32.728Z,99.99
2022-11-17T06:53:32.976Z,99.99
2022-11-17T06:54:32.690Z,99.99
2022-11-17T06:55:32.722Z,99.99
2022-11-17T06:56:32.647Z,99.99
2022-11-17T06:57:32.655Z,99.99
2022-11-17T06:58:32.792Z,99.99
2022-11-17T06:59:32.603Z,99.68
2022-11-17T07:00:32.663Z,99.43
2022-11-17T07:01:32.572Z,99.88
2022-11-17T07:02:32.595Z,99.68
2022-11-17T07:04:56.881Z,99.78
2022-11-17T07:05:57.127Z,99.68
2022-11-17T07:06:56.510Z,99.68
2022-11-17T07:07:56.385Z,99.78
2022-11-17T07:08:56.362Z,99.68
2022-11-17T07:09:56.304Z,99.52
2022-11-17T07:10:57.015Z,99.68
2022-11-17T07:11:56.311Z,99.78
2022-11-17T07:12:56.291Z,99.57
2022-11-17T07:13:56.292Z,99.37
2022-11-17T07:14:56.241Z,98.61
2022-11-17T07:15:56.309Z,98.20
2022-11-17T07:16:56.221Z,97.99
2022-11-17T07:17:56.214Z,98.10
2022-11-17T07:18:56.331Z,98.71
2022-11-17T07:19:56.160Z,98.30
2022-11-17T07:20:56.180Z,97.99
2022-11-17T07:21:56.185Z,98.50
2022-11-17T07:22:56.239Z,98.71
2022-11-17T07:23:56.174Z,99.16
2022-11-17T07:24:56.149Z,99.06
2022-11-17T07:25:56.176Z,98.91
2022-11-17T07:26:57.310Z,98.81
2022-11-17T07:27:56.153Z,98.50
2022-11-17T07:28:56.062Z,98.81
2022-11-17T07:29:56.070Z,98.71
2022-11-17T07:30:56.079Z,98.71
2022-11-17T07:31:56.096Z,98.91
2022-11-17T07:32:55.973Z,99.02
2022-11-17T07:33:56.017Z,98.91
2022-11-17T07:34:56.001Z,98.71
2022-11-17T07:35:55.959Z,97.99
2022-11-17T07:36:55.934Z,97.54
2022-11-17T07:37:55.891Z,97.74
2022-11-17T07:38:55.940Z,97.79
2022-11-17T07:39:55.879Z,97.89
2022-11-17T07:40:55.900Z,98.71
2022-11-17T07:41:55.897Z,99.02
2022-11-17T07:42:55.842Z,99.43
2022-11-17T07:43:55.957Z,99.63
2022-11-17T07:44:55.884Z,98.61
2022-11-17T07:45:55.783Z,99.22
2022-11-17T07:48:03.523Z,98.10
2022-11-17T07:48:55.775Z,98.61
2022-11-17T07:49:55.767Z,99.02
2022-11-17T07:50:55.760Z,98.61
2022-11-17T07:51:55.735Z,98.81
2022-11-17T07:52:55.711Z,98.10
2022-11-17T07:53:55.694Z,97.58
2022-11-17T07:54:55.708Z,98.20
2022-11-17T07:55:55.741Z,98.81
2022-11-17T07:56:55.633Z,98.10
2022-11-17T07:57:55.639Z,98.10
2022-11-17T07:58:55.685Z,97.89
2022-11-17T07:59:55.607Z,97.79
2022-11-17T08:00:55.693Z,97.89
2022-11-17T08:01:55.599Z,97.99
2022-11-17T08:02:55.573Z,97.89
2022-11-17T08:03:55.644Z,98.61
2022-11-17T08:04:55.530Z,98.50
2022-11-17T08:05:55.516Z,98.81
2022-11-17T08:06:55.634Z,98.30
2022-11-17T08:07:55.559Z,98.81
2022-11-17T08:08:55.509Z,98.91
2022-11-17T08:09:55.512Z,99.37
2022-11-17T08:10:55.499Z,99.27
2022-11-17T08:11:55.509Z,99.27
2022-11-17T08:12:55.552Z,98.86
2022-11-17T08:13:55.427Z,98.55
2022-11-17T08:14:55.466Z,99.06
2022-11-17T08:15:55.450Z,99.06
2022-11-17T08:16:55.385Z,98.96
2022-11-17T08:17:55.594Z,99.06
2022-11-17T08:18:55.410Z,99.47
2022-11-17T08:19:55.354Z,99.68
2022-11-17T08:20:55.349Z,98.96
2022-11-17T08:21:55.373Z,99.27
2022-11-17T08:22:55.352Z,99.37
2022-11-17T08:23:55.290Z,99.27
2022-11-17T08:24:55.308Z,99.16
2022-11-17T08:25:55.307Z,99.57
2022-11-17T08:26:55.283Z,99.57
2022-11-17T08:27:55.274Z,99.16
2022-11-17T08:28:58.365Z,99.37
2022-11-17T08:29:55.262Z,99.37
2022-11-17T08:30:55.186Z,99.68
2022-11-17T08:31:55.187Z,99.16
2022-11-17T08:32:55.260Z,99.78
2022-11-17T08:33:55.141Z,99.27
2022-11-17T08:34:55.281Z,99.16
2022-11-17T08:35:55.094Z,98.65
2022-11-17T08:36:55.099Z,98.96
2022-11-17T08:37:55.083Z,98.65
2022-11-17T08:38:55.088Z,99.16
2022-11-17T08:39:55.780Z,99.16
2022-11-17T08:40:55.074Z,99.06
2022-11-17T08:41:55.065Z,98.96
2022-11-17T08:43:00.364Z,98.65
2022-11-17T08:43:56.024Z,98.96
2022-11-17T08:44:55.134Z,99.16
2022-11-17T08:45:54.935Z,99.47
2022-11-17T08:46:54.939Z,99.21
2022-11-17T08:47:55.023Z,99.21
2022-11-17T08:48:57.147Z,99.41
2022-11-17T08:49:54.897Z,99.21
2022-11-17T08:50:54.872Z,99.41
2022-11-17T08:51:54.926Z,99.82
2022-11-17T08:52:54.918Z,99.72
2022-11-17T08:53:54.856Z,99.99
2022-11-17T08:54:54.928Z,99.99
2022-11-17T08:55:54.963Z,99.99
2022-11-17T08:56:55.014Z,99.99
2022-11-17T08:57:54.830Z,99.99
2022-11-17T08:58:54.792Z,99.99
2022-11-17T08:59:54.771Z,99.99
2022-11-17T09:00:54.814Z,99.99
2022-11-17T09:01:54.726Z,99.99
2022-11-17T09:02:54.717Z,99.99
2022-11-17T09:03:54.691Z,99.99
2022-11-17T09:04:54.729Z,99.99
2022-11-17T09:05:54.692Z,99.99
2022-11-17T09:06:54.686Z,99.99
2022-11-17T09:07:54.834Z,99.99
2022-11-17T09:08:54.702Z,99.99
2022-11-17T09:09:54.692Z,99.99
2022-11-17T09:10:54.606Z,99.99
2022-11-17T09:11:54.618Z,99.99
2022-11-17T09:12:54.647Z,99.99
2022-11-17T09:13:54.658Z,99.99
2022-11-17T09:14:54.555Z,99.99
2022-11-17T09:15:54.560Z,99.99
2022-11-17T09:16:54.525Z,99.98
2022-11-17T09:17:54.524Z,99.27
2022-11-17T09:18:54.520Z,99.16
2022-11-17T09:19:54.491Z,99.88
2022-11-17T09:20:54.503Z,99.98
2022-11-17T09:21:54.483Z,99.98
2022-11-17T09:22:54.492Z,99.16
2022-11-17T09:23:54.467Z,99.37
2022-11-17T09:24:54.449Z,99.52
2022-11-17T09:25:54.525Z,99.99
2022-11-17T09:26:54.397Z,99.73
2022-11-17T09:27:54.394Z,98.20
2022-11-17T09:28:54.392Z,98.91
2022-11-17T09:29:54.344Z,99.32
2022-11-17T09:30:54.632Z,98.20
2022-11-17T09:31:54.407Z,97.58
2022-11-17T09:32:54.348Z,96.92
2022-11-17T09:33:54.419Z,97.03
2022-11-17T09:34:54.335Z,97.24
2022-11-17T09:35:54.256Z,98.11
2022-11-17T09:36:54.304Z,97.80
2022-11-17T09:37:54.269Z,97.80
2022-11-17T09:38:54.206Z,98.00
2022-11-17T09:39:54.257Z,96.27
2022-11-17T09:40:54.214Z,96.78
2022-11-17T09:41:54.190Z,96.88
2022-11-17T09:42:54.164Z,95.25
2022-11-17T09:43:54.253Z,95.45
2022-11-17T09:44:54.137Z,95.76
2022-11-17T09:45:54.126Z,95.45
2022-11-17T09:46:54.106Z,94.84
2022-11-17T09:48:06.979Z,94.33
2022-11-17T09:48:55.442Z,95.61
2022-11-17T09:49:58.712Z,95.65
2022-11-17T09:50:55.212Z,95.65
2022-11-17T09:51:54.077Z,95.56
2022-11-17T09:52:54.126Z,94.70
2022-11-17T09:53:54.027Z,94.64
2022-11-17T09:54:54.062Z,94.12
2022-11-17T09:55:54.009Z,94.29
2022-11-17T09:56:53.995Z,94.59
2022-11-17T09:57:53.999Z,95.41
2022-11-17T09:58:53.947Z,95.00
2022-11-17T09:59:53.970Z,93.98
2022-11-17T10:00:53.936Z,93.26
2022-11-17T10:01:54.086Z,92.65
2022-11-17T10:02:53.960Z,93.37
2022-11-17T10:03:53.858Z,92.45
2022-11-17T10:04:53.851Z,91.94
2022-11-17T10:05:53.926Z,93.88
2022-11-17T10:06:53.967Z,93.77
2022-11-17T10:07:53.829Z,93.47
2022-11-17T10:08:53.798Z,93.06
2022-11-17T10:09:53.797Z,93.26
2022-11-17T10:10:53.884Z,91.12
2022-11-17T10:11:53.861Z,92.35
2022-11-17T10:12:53.790Z,91.63
2022-11-17T10:13:53.739Z,91.33
2022-11-17T10:14:53.724Z,91.94
2022-11-17T10:15:53.752Z,91.53
2022-11-17T10:16:53.697Z,91.94
2022-11-17T10:17:53.958Z,91.43
2022-11-17T10:18:53.678Z,91.63
2022-11-17T10:19:53.677Z,90.47
2022-11-17T10:20:53.636Z,90.26
2022-11-17T10:21:53.602Z,90.16
2022-11-17T10:22:53.610Z,90.16
2022-11-17T10:23:54.112Z,89.86
2022-11-17T10:24:53.618Z,89.34
2022-11-17T10:25:53.603Z,88.53
2022-11-17T10:26:53.521Z,88.02
2022-11-17T10:27:53.553Z,88.49
2022-11-17T10:28:53.511Z,89.51
2022-11-17T10:29:53.541Z,89.30
2022-11-17T10:30:53.527Z,87.98
2022-11-17T10:31:53.505Z,88.59
2022-11-17T10:32:53.465Z,89.71
2022-11-17T10:33:53.470Z,89.00
2022-11-17T10:34:53.486Z,86.65
2022-11-17T10:35:53.400Z,88.49
2022-11-17T10:36:53.609Z,87.26
2022-11-17T10:37:53.355Z,86.86
2022-11-17T10:38:53.423Z,87.47
2022-11-17T10:39:53.337Z,88.85
2022-11-17T10:40:53.303Z,86.51
2022-11-17T10:41:53.373Z,85.28
2022-11-17T10:42:53.300Z,86.21
2022-11-17T10:43:53.309Z,86.00
2022-11-17T10:44:53.283Z,85.19
2022-11-17T10:45:53.259Z,86.06
2022-11-17T10:46:56.479Z,85.45
2022-11-17T10:47:54.244Z,85.55
2022-11-17T10:48:53.187Z,86.06
2022-11-17T10:49:53.335Z,84.53
2022-11-17T10:50:53.261Z,85.31
2022-11-17T10:51:53.246Z,84.19
2022-11-17T10:52:53.208Z,83.82
2022-11-17T10:53:53.159Z,83.42
2022-11-17T10:54:53.110Z,81.99
2022-11-17T10:55:53.135Z,83.21
2022-11-17T10:56:53.371Z,83.98
2022-11-17T10:57:53.061Z,82.56
2022-11-17T10:58:53.042Z,82.46
2022-11-17T10:59:56.923Z,83.58
2022-11-17T11:00:53.086Z,81.24
2022-11-17T11:01:53.111Z,81.65
2022-11-17T11:02:52.987Z,81.34
2022-11-17T11:03:52.987Z,81.24
2022-11-17T11:04:52.977Z,83.03
2022-11-17T11:05:53.015Z,82.82
2022-11-17T11:06:53.095Z,81.30
2022-11-17T11:07:52.923Z,82.32
2022-11-17T11:08:52.995Z,81.34
2022-11-17T11:09:52.890Z,82.05
2022-11-17T11:10:52.916Z,81.38
2022-11-17T11:11:52.899Z,82.80
2022-11-17T11:12:52.885Z,82.09
2022-11-17T11:13:52.872Z,82.50
2022-11-17T11:14:52.931Z,82.80
2022-11-17T11:15:52.893Z,83.01
2022-11-17T11:16:52.833Z,82.09
2022-11-17T11:17:52.827Z,82.29
2022-11-17T11:18:52.761Z,83.15
2022-11-17T11:19:52.851Z,81.31
2022-11-17T11:20:52.784Z,81.93
2022-11-17T11:21:52.803Z,82.13
2022-11-17T11:22:52.747Z,82.33
2022-11-17T11:23:52.751Z,82.33
2022-11-17T11:24:52.697Z,82.03
2022-11-17T11:25:52.718Z,81.11
2022-11-17T11:26:52.705Z,81.62
2022-11-17T11:27:52.673Z,81.72
2022-11-17T11:28:54.821Z,83.04
2022-11-17T11:29:52.677Z,83.56
2022-11-17T11:30:52.603Z,83.15
2022-11-17T11:31:52.579Z,83.35
2022-11-17T11:32:52.852Z,83.04
2022-11-17T11:33:52.743Z,82.94
2022-11-17T11:34:52.546Z,81.93
2022-11-17T11:35:52.558Z,81.82
2022-11-17T11:36:52.557Z,82.64
2022-11-17T11:37:52.547Z,83.56
2022-11-17T11:38:52.532Z,82.03
2022-11-17T11:39:52.468Z,82.74
2022-11-17T11:40:52.435Z,83.45
2022-11-17T11:41:52.486Z,81.93
2022-11-17T11:42:52.532Z,83.15
2022-11-17T11:43:52.418Z,82.74
2022-11-17T11:44:52.544Z,82.23
2022-11-17T11:45:52.504Z,83.45
2022-11-17T11:46:52.416Z,83.04
2022-11-17T11:47:52.470Z,81.82
2022-11-17T11:48:52.331Z,82.13
2022-11-17T11:49:52.303Z,81.48
2022-11-17T11:50:52.403Z,82.29
2022-11-17T11:51:52.298Z,82.19
2022-11-17T11:52:52.335Z,82.33
2022-11-17T11:53:52.321Z,82.43
2022-11-17T11:54:52.260Z,81.52
2022-11-17T11:55:52.258Z,80.87
2022-11-17T11:56:52.234Z,81.48
2022-11-17T11:57:52.276Z,81.79
2022-11-17T11:58:52.246Z,82.29
2022-11-17T11:59:52.205Z,81.68
2022-11-17T12:00:52.271Z,82.80
2022-11-17T12:02:01.428Z,81.27
2022-11-17T12:02:52.195Z,81.88
2022-11-17T12:04:00.876Z,82.80
2022-11-17T12:04:59.809Z,82.09
2022-11-17T12:05:52.088Z,81.82
2022-11-17T12:06:52.099Z,82.43
2022-11-17T12:07:52.040Z,81.21
2022-11-17T12:08:52.125Z,81.62
2022-11-17T12:09:52.048Z,81.93
2022-11-17T12:10:52.009Z,81.82
2022-11-17T12:11:51.990Z,82.23
2022-11-17T12:12:52.367Z,83.25
2022-11-17T12:13:54.283Z,82.33
2022-11-17T12:14:52.031Z,82.54
2022-11-17T12:15:52.210Z,82.74
2022-11-17T12:16:51.916Z,82.54
2022-11-17T12:17:51.935Z,82.57
2022-11-17T12:18:51.911Z,82.03
2022-11-17T12:19:51.891Z,83.04
2022-11-17T12:20:51.873Z,83.09
2022-11-17T12:21:51.859Z,83.29
2022-11-17T12:22:51.852Z,82.17
2022-11-17T12:23:51.836Z,82.17
2022-11-17T12:24:51.808Z,82.37
2022-11-17T12:25:54.201Z,82.27
2022-11-17T12:26:51.763Z,81.21
2022-11-17T12:27:51.750Z,81.82
2022-11-17T12:28:51.734Z,81.31
2022-11-17T12:29:51.744Z,82.54
2022-11-17T12:30:51.695Z,81.72
2022-11-17T12:31:51.699Z,81.41
2022-11-17T12:32:51.724Z,81.41
2022-11-17T12:33:51.654Z,81.21
2022-11-17T12:34:51.642Z,81.82
2022-11-17T12:35:51.647Z,82.43
2022-11-17T12:36:51.654Z,82.64
2022-11-17T12:37:51.617Z,84.41
2022-11-17T12:38:51.596Z,85.22
2022-11-17T12:39:51.577Z,85.13
2022-11-17T12:40:51.556Z,86.39
2022-11-17T12:41:54.653Z,88.22
2022-11-17T12:42:51.552Z,88.53
2022-11-17T12:43:51.708Z,88.67
2022-11-17T12:44:51.520Z,88.98
2022-11-17T12:45:51.536Z,89.39
2022-11-17T12:46:51.498Z,90.31
2022-11-17T12:48:11.629Z,89.23
2022-11-17T12:48:52.496Z,89.43
2022-11-17T12:49:51.458Z,90.25
2022-11-17T12:50:51.431Z,90.75
2022-11-17T12:51:51.502Z,90.71
2022-11-17T12:52:51.391Z,90.75
2022-11-17T12:53:51.359Z,88.47
2022-11-17T12:54:51.390Z,89.28
2022-11-17T12:55:51.350Z,88.67